Time;durP1;ratioP1;P1;durP2;ratioP2;P2;SDS_P1;SDS_P2;PMS_P1;PMS_P2;Temp;Humidity;BMP_temperature;BMP_pressure;BME280_temperature;BME280_humidity;BME280_pressure;Samples;Min_cycle;Max_cycle;Signal;HPM_P1;HPM_P2
2023/11/20 00:01:47;;;;;;;20.60;3.08;;;10.80;99.90;;;;;;6271924;28;20060;-85
2023/11/20 00:04:49;;;;;;;24.63;3.88;;;10.70;99.90;;;;;;6271741;28;20564;-85
2023/11/20 00:07:50;;;;;;;18.65;3.08;;;10.80;99.90;;;;;;6271489;28;20056;-85
2023/11/20 00:10:52;;;;;;;19.90;3.28;;;10.80;99.90;;;;;;6270159;28;20049;-84
2023/11/20 00:13:54;;;;;;;22.98;3.83;;;10.70;99.90;;;;;;6264900;28;21107;-85
2023/11/20 00:16:56;;;;;;;20.35;3.60;;;10.80;99.90;;;;;;6270326;28;20052;-84
2023/11/20 00:19:58;;;;;;;20.92;3.13;;;10.70;99.90;;;;;;6271017;28;20052;-87
2023/11/20 00:23:00;;;;;;;21.20;3.65;;;10.80;99.90;;;;;;6271951;28;20143;-85
2023/11/20 00:26:02;;;;;;;18.05;2.92;;;10.80;99.90;;;;;;6271692;28;20746;-84
2023/11/20 00:29:08;;;;;;;21.17;3.17;;;10.80;99.90;;;;;;6269319;28;20057;-84
2023/11/20 00:32:09;;;;;;;19.88;3.47;;;10.80;99.90;;;;;;6267110;28;20195;-85
2023/11/20 00:35:14;;;;;;;21.40;3.50;;;10.70;99.90;;;;;;6295486;28;20086;-86
2023/11/20 00:38:16;;;;;;;18.92;4.18;;;10.60;99.90;;;;;;6295775;28;20060;-85
2023/11/20 00:41:19;;;;;;;26.33;3.60;;;10.50;99.90;;;;;;6295584;28;20059;-84
2023/11/20 00:44:21;;;;;;;21.83;3.28;;;10.50;99.90;;;;;;6273025;28;20051;-84
2023/11/20 00:47:22;;;;;;;22.17;3.42;;;10.40;99.90;;;;;;6295953;28;20052;-83
2023/11/20 00:50:24;;;;;;;25.98;3.85;;;10.50;99.90;;;;;;6295230;28;20048;-84
2023/11/20 00:53:25;;;;;;;23.02;3.15;;;10.40;99.90;;;;;;6296976;28;20040;-87
2023/11/20 00:56:28;;;;;;;27.60;3.35;;;10.40;99.90;;;;;;6278236;28;20427;-85
2023/11/20 00:59:30;;;;;;;23.33;3.45;;;10.30;99.90;;;;;;6275846;28;20908;-87
2023/11/20 01:02:31;;;;;;;19.05;3.35;;;10.30;99.90;;;;;;6284720;28;20060;-84
2023/11/20 01:05:33;;;;;;;20.10;3.30;;;10.20;99.90;;;;;;6297154;28;20058;-85
2023/11/20 01:08:35;;;;;;;22.95;3.28;;;10.20;99.90;;;;;;6278371;28;20048;-86
2023/11/20 01:11:36;;;;;;;22.70;3.53;;;10.10;99.90;;;;;;6294910;28;20057;-84
2023/11/20 01:14:38;;;;;;;17.40;3.05;;;10.10;99.90;;;;;;6291574;28;20060;-85
2023/11/20 01:17:40;;;;;;;19.92;3.60;;;10.10;99.90;;;;;;6294318;28;20480;-84
2023/11/20 01:20:42;;;;;;;15.95;2.65;;;10.00;99.90;;;;;;6295298;28;20048;-84
2023/11/20 01:23:43;;;;;;;16.63;3.45;;;10.00;99.90;;;;;;6278053;28;20064;-85
2023/11/20 01:26:45;;;;;;;16.40;2.65;;;9.90;99.90;;;;;;6296937;28;20048;-86
2023/11/20 01:29:47;;;;;;;20.88;3.30;;;9.90;99.90;;;;;;6273502;28;20056;-85
2023/11/20 01:32:48;;;;;;;23.55;2.97;;;9.90;99.90;;;;;;6293984;28;20063;-85
2023/11/20 01:35:51;;;;;;;21.75;3.58;;;9.90;99.90;;;;;;6294535;28;20653;-84
2023/11/20 01:38:52;;;;;;;18.50;3.63;;;9.80;99.90;;;;;;6294016;28;20506;-85
2023/11/20 01:41:54;;;;;;;25.35;3.17;;;9.80;99.90;;;;;;6294292;28;20053;-84
2023/11/20 01:44:55;;;;;;;21.10;3.50;;;9.80;99.90;;;;;;6293153;28;20052;-85
2023/11/20 01:47:57;;;;;;;21.38;3.15;;;9.80;99.90;;;;;;6293529;28;20401;-84
2023/11/20 01:50:59;;;;;;;18.52;3.20;;;9.70;99.90;;;;;;6293796;28;20048;-85
2023/11/20 01:54:00;;;;;;;21.05;3.22;;;9.70;99.90;;;;;;6294115;28;20052;-85
2023/11/20 01:57:02;;;;;;;23.08;3.47;;;9.60;99.90;;;;;;6294148;28;20052;-85
2023/11/20 02:00:09;;;;;;;21.17;3.70;;;9.70;99.90;;;;;;6271079;28;20063;-84
2023/11/20 02:03:11;;;;;;;24.90;3.40;;;9.70;99.90;;;;;;6294345;28;20080;-86
2023/11/20 02:06:13;;;;;;;27.58;3.92;;;9.60;99.90;;;;;;6293130;28;20074;-85
2023/11/20 02:09:16;;;;;;;24.27;3.17;;;9.60;99.90;;;;;;6293943;28;20044;-83
2023/11/20 02:12:18;;;;;;;18.45;3.05;;;9.60;99.90;;;;;;6293615;28;20075;-84
2023/11/20 02:15:20;;;;;;;25.25;3.33;;;9.60;99.90;;;;;;6271249;28;20048;-86
2023/11/20 02:18:21;;;;;;;21.77;3.67;;;9.50;99.90;;;;;;6293788;28;20056;-85
2023/11/20 02:21:23;;;;;;;20.20;3.42;;;9.50;99.90;;;;;;6293527;28;20056;-85
2023/11/20 02:24:26;;;;;;;24.05;3.38;;;9.50;99.90;;;;;;6293407;28;20083;-84
2023/11/20 02:27:28;;;;;;;27.05;3.33;;;9.50;99.90;;;;;;6293311;28;20053;-85
2023/11/20 02:30:29;;;;;;;28.38;3.97;;;9.50;99.90;;;;;;6289892;28;20052;-85
2023/11/20 02:33:31;;;;;;;25.27;3.28;;;9.50;99.90;;;;;;6275866;28;20486;-85
2023/11/20 02:36:32;;;;;;;25.15;3.65;;;9.40;99.90;;;;;;6276013;28;20049;-86
2023/11/20 02:39:35;;;;;;;20.63;3.15;;;9.40;99.90;;;;;;6293551;28;20048;-85
2023/11/20 02:42:36;;;;;;;19.08;3.22;;;9.40;99.90;;;;;;6275993;28;20060;-85
2023/11/20 02:45:38;;;;;;;19.85;2.90;;;9.40;99.90;;;;;;6290558;28;20060;-85
2023/11/20 02:48:40;;;;;;;16.98;3.15;;;9.30;99.90;;;;;;6275678;28;20056;-85
2023/11/20 02:51:42;;;;;;;24.45;4.07;;;9.30;99.90;;;;;;6293453;28;20135;-85
2023/11/20 02:54:44;;;;;;;21.23;2.95;;;9.20;99.90;;;;;;6293319;28;20055;-84
2023/11/20 02:57:46;;;;;;;16.92;3.08;;;9.30;99.90;;;;;;6275923;28;20132;-85
2023/11/20 03:00:48;;;;;;;22.02;3.25;;;9.20;99.90;;;;;;6287901;28;20056;-86
2023/11/20 03:03:50;;;;;;;16.20;3.53;;;9.20;99.90;;;;;;6293518;28;20139;-85
2023/11/20 03:06:52;;;;;;;15.77;2.72;;;9.20;99.90;;;;;;6291591;28;20056;-86
2023/11/20 03:09:53;;;;;;;25.35;3.35;;;9.20;99.90;;;;;;6275759;28;20055;-85
2023/11/20 03:12:55;;;;;;;19.38;3.10;;;9.30;99.90;;;;;;6292973;28;20075;-84
2023/11/20 03:15:56;;;;;;;17.83;3.20;;;9.30;99.90;;;;;;6291681;28;20059;-84
2023/11/20 03:18:58;;;;;;;18.13;3.17;;;9.20;99.90;;;;;;6302848;22;20135;-89
2023/11/20 03:22:00;;;;;;;21.13;2.65;;;9.30;99.90;;;;;;6234122;28;20049;-91
2023/11/20 03:25:02;;;;;;;16.23;2.80;;;9.20;99.90;;;;;;6270363;28;20110;-88
2023/11/20 03:28:03;;;;;;;13.70;2.70;;;9.20;99.90;;;;;;6255523;28;20053;-90
2023/11/20 03:31:05;;;;;;;18.58;2.97;;;9.20;99.90;;;;;;6233490;28;20052;-91
2023/11/20 03:34:07;;;;;;;24.60;3.03;;;9.10;99.90;;;;;;6272907;28;20041;-90
2023/11/20 03:37:08;;;;;;;23.30;2.97;;;9.10;99.90;;;;;;6254089;28;20063;-90
2023/11/20 03:40:10;;;;;;;22.67;2.85;;;9.00;99.90;;;;;;6259801;28;20052;-91
2023/11/20 03:43:12;;;;;;;21.40;3.38;;;9.10;99.90;;;;;;6236846;28;20057;-90
2023/11/20 03:46:14;;;;;;;13.48;2.42;;;9.10;99.90;;;;;;6280971;28;20102;-89
2023/11/20 03:49:16;;;;;;;12.15;2.72;;;9.00;99.90;;;;;;6261085;28;20054;-89
2023/11/20 03:52:18;;;;;;;20.05;3.00;;;8.90;99.90;;;;;;6283755;28;20049;-90
2023/11/20 03:55:19;;;;;;;13.77;2.53;;;8.90;99.90;;;;;;6262318;28;20050;-89
2023/11/20 03:58:21;;;;;;;18.80;2.70;;;8.90;99.90;;;;;;6284806;28;20064;-90
2023/11/20 04:01:23;;;;;;;20.38;3.35;;;8.80;99.90;;;;;;6242359;28;20080;-89
2023/11/20 04:04:25;;;;;;;23.55;3.33;;;8.80;99.90;;;;;;6262701;28;20049;-90
2023/11/20 04:07:27;;;;;;;20.05;3.50;;;8.80;99.90;;;;;;6239207;28;20057;-89
2023/11/20 04:10:29;;;;;;;25.58;3.55;;;8.80;99.90;;;;;;6287634;28;20110;-90
2023/11/20 04:13:30;;;;;;;19.42;2.85;;;8.70;99.90;;;;;;6245846;28;20048;-89
2023/11/20 04:16:32;;;;;;;15.57;2.80;;;8.70;99.90;;;;;;6267090;28;20049;-89
2023/11/20 04:19:34;;;;;;;21.58;3.45;;;8.60;99.90;;;;;;6252987;28;20060;-89
2023/11/20 04:22:37;;;;;;;24.50;3.30;;;8.50;99.90;;;;;;6244939;28;20407;-88
2023/11/20 04:25:39;;;;;;;19.45;2.92;;;8.50;99.90;;;;;;6254320;28;20408;-89
2023/11/20 04:28:41;;;;;;;20.15;2.80;;;8.50;99.90;;;;;;6269777;28;20215;-89
2023/11/20 04:31:43;;;;;;;20.98;3.30;;;8.40;99.90;;;;;;6234328;28;20057;-89
2023/11/20 04:34:44;;;;;;;24.35;3.22;;;8.50;99.90;;;;;;6260601;28;20057;-89
2023/11/20 04:37:46;;;;;;;21.80;3.20;;;8.30;99.90;;;;;;6254319;28;20049;-89
2023/11/20 04:40:48;;;;;;;22.42;3.03;;;8.40;99.90;;;;;;6232889;28;20064;-89
2023/11/20 04:43:50;;;;;;;21.65;3.72;;;8.40;99.90;;;;;;6247393;28;20049;-89
2023/11/20 04:46:52;;;;;;;22.73;3.33;;;8.40;99.90;;;;;;6260994;28;20064;-90
2023/11/20 04:49:53;;;;;;;20.05;3.08;;;8.50;99.90;;;;;;6257382;28;20056;-90
2023/11/20 04:52:55;;;;;;;21.83;3.53;;;8.40;99.90;;;;;;6297253;28;20097;-89
2023/11/20 04:55:57;;;;;;;16.02;2.65;;;8.50;99.90;;;;;;6274706;28;20037;-90
2023/11/20 04:58:59;;;;;;;18.75;3.28;;;8.40;99.90;;;;;;6281573;28;20155;-87
2023/11/20 05:02:02;;;;;;;21.85;3.05;;;8.40;99.90;;;;;;6298836;28;20061;-89
2023/11/20 05:05:06;;;;;;;21.02;3.20;;;8.40;99.90;;;;;;6278179;28;20076;-92
2023/11/20 05:08:11;;;;;;;21.05;3.03;;;8.30;99.90;;;;;;6282921;28;20040;-92
2023/11/20 05:11:13;;;;;;;22.65;3.08;;;8.20;99.90;;;;;;6260227;28;20049;-90
2023/11/20 05:14:15;;;;;;;17.88;3.00;;;8.30;99.90;;;;;;6289215;28;20076;-90
2023/11/20 05:17:20;;;;;;;18.38;2.80;;;8.30;99.90;;;;;;6300301;28;20105;-88
2023/11/20 05:20:22;;;;;;;23.40;3.20;;;8.30;99.90;;;;;;6284777;28;20060;-89
2023/11/20 05:23:24;;;;;;;22.60;3.03;;;8.20;99.90;;;;;;6258942;28;20068;-90
2023/11/20 05:26:26;;;;;;;19.20;2.92;;;8.20;99.90;;;;;;6251712;28;20050;-89
2023/11/20 05:29:28;;;;;;;22.73;3.28;;;8.30;99.90;;;;;;6254882;28;20076;-89
2023/11/20 05:32:30;;;;;;;15.75;2.88;;;8.30;99.90;;;;;;6234526;28;20105;-88
2023/11/20 05:35:33;;;;;;;22.13;2.97;;;8.20;99.90;;;;;;6257986;28;20045;-89
2023/11/20 05:38:35;;;;;;;16.88;3.25;;;8.20;99.90;;;;;;6234427;28;20057;-89
2023/11/20 05:41:36;;;;;;;19.17;3.40;;;8.20;99.90;;;;;;6257607;28;20075;-88
2023/11/20 05:44:38;;;;;;;25.55;3.72;;;8.20;99.90;;;;;;6242760;28;20053;-89
2023/11/20 05:47:40;;;;;;;15.57;2.70;;;8.30;99.90;;;;;;6257075;28;20049;-91
2023/11/20 05:50:41;;;;;;;17.40;3.05;;;8.30;99.90;;;;;;6234080;28;20532;-88
2023/11/20 05:53:43;;;;;;;22.02;2.78;;;8.30;99.90;;;;;;6257781;28;20060;-91
2023/11/20 05:56:46;;;;;;;18.80;3.03;;;8.30;99.90;;;;;;6243060;28;20131;-88
2023/11/20 05:59:47;;;;;;;24.08;3.38;;;8.40;99.90;;;;;;6240129;28;20088;-91
2023/11/20 06:02:49;;;;;;;21.23;2.95;;;8.40;99.90;;;;;;6257248;28;20061;-89
2023/11/20 06:05:51;;;;;;;20.63;3.58;;;8.30;99.90;;;;;;6239701;28;20064;-89
2023/11/20 06:08:52;;;;;;;18.45;2.72;;;8.30;99.90;;;;;;6249005;28;20060;-90
2023/11/20 06:11:55;;;;;;;17.67;3.05;;;8.30;99.90;;;;;;6274683;28;20056;-90
2023/11/20 06:14:56;;;;;;;20.85;3.35;;;8.30;99.90;;;;;;6265831;28;20053;-88
2023/11/20 06:17:58;;;;;;;16.00;2.65;;;8.30;99.90;;;;;;6253175;28;20122;-89
2023/11/20 06:21:00;;;;;;;18.92;2.90;;;8.40;99.90;;;;;;6268253;28;20049;-90
2023/11/20 06:24:02;;;;;;;22.58;3.67;;;8.40;99.90;;;;;;6263230;28;20045;-85
2023/11/20 06:27:04;;;;;;;17.23;3.10;;;8.40;99.90;;;;;;6237203;28;20050;-88
2023/11/20 06:30:05;;;;;;;15.95;3.05;;;8.50;99.90;;;;;;6246599;28;20054;-89
2023/11/20 06:33:09;;;;;;;17.05;3.00;;;8.60;99.90;;;;;;6255236;28;20053;-91
2023/11/20 06:36:11;;;;;;;17.70;3.30;;;8.60;99.90;;;;;;6240750;28;20060;-89
2023/11/20 06:39:13;;;;;;;22.60;3.22;;;8.70;99.90;;;;;;6231603;28;20061;-89
2023/11/20 06:42:15;;;;;;;20.80;3.20;;;8.70;99.90;;;;;;6255493;28;20075;-88
2023/11/20 06:45:16;;;;;;;15.27;2.70;;;8.80;99.90;;;;;;6230490;28;20064;-89
2023/11/20 06:48:18;;;;;;;24.23;3.13;;;8.90;99.90;;;;;;6255395;28;20045;-88
2023/11/20 06:51:20;;;;;;;17.98;2.92;;;9.00;99.90;;;;;;6256386;28;20138;-88
2023/11/20 06:54:21;;;;;;;17.75;2.78;;;9.00;99.90;;;;;;6254955;28;20049;-89
2023/11/20 06:57:23;;;;;;;24.48;3.20;;;9.10;99.90;;;;;;6261658;28;20057;-89
2023/11/20 07:00:25;;;;;;;19.27;2.92;;;9.10;99.90;;;;;;6258951;28;20424;-88
2023/11/20 07:03:26;;;;;;;26.25;3.58;;;9.10;99.90;;;;;;6238854;28;20064;-90
2023/11/20 07:06:28;;;;;;;19.75;3.15;;;9.10;99.90;;;;;;6280061;28;20095;-89
2023/11/20 07:09:30;;;;;;;25.83;3.55;;;9.10;99.90;;;;;;6237495;28;20042;-89
2023/11/20 07:12:32;;;;;;;18.92;3.22;;;9.10;99.90;;;;;;6262132;28;20755;-90
2023/11/20 07:15:33;;;;;;;20.20;3.53;;;9.10;99.90;;;;;;6262797;28;20059;-89
2023/11/20 07:18:35;;;;;;;19.80;2.97;;;9.10;99.90;;;;;;6269738;28;20056;-91
2023/11/20 07:21:39;;;;;;;19.48;3.45;;;9.10;99.90;;;;;;6289087;28;20045;-91
2023/11/20 07:24:40;;;;;;;19.55;3.00;;;9.00;99.90;;;;;;6287300;28;20061;-90
2023/11/20 07:27:42;;;;;;;15.43;3.10;;;9.10;99.90;;;;;;6304309;28;20108;-89
2023/11/20 07:30:44;;;;;;;19.88;3.08;;;9.10;99.90;;;;;;6256740;28;20046;-87
2023/11/20 07:33:46;;;;;;;12.07;2.60;;;9.20;99.90;;;;;;6285865;28;20064;-89
2023/11/20 07:36:47;;;;;;;16.88;3.38;;;9.20;99.90;;;;;;6264122;28;20029;-89
2023/11/20 07:39:49;;;;;;;18.95;3.28;;;9.20;99.90;;;;;;6277101;28;20037;-87
2023/11/20 07:42:50;;;;;;;18.40;2.85;;;9.30;99.90;;;;;;6264107;28;20049;-88
2023/11/20 07:45:52;;;;;;;16.75;2.88;;;9.20;99.90;;;;;;6280397;28;20101;-88
2023/11/20 07:48:54;;;;;;;15.43;2.70;;;9.20;99.90;;;;;;6265098;28;20389;-88
2023/11/20 07:51:57;;;;;;;16.83;2.60;;;9.20;99.90;;;;;;6247408;28;20136;-90
2023/11/20 07:54:58;;;;;;;14.30;1.90;;;9.30;99.90;;;;;;6282840;28;20100;-88
2023/11/20 07:58:01;;;;;;;15.30;2.50;;;9.20;99.90;;;;;;6280938;28;20045;-91
2023/11/20 08:01:04;;;;;;;20.23;2.35;;;9.20;99.90;;;;;;6247288;28;20132;-92
2023/11/20 08:04:06;;;;;;;13.18;2.40;;;9.30;99.90;;;;;;6263895;28;20449;-91
2023/11/20 08:07:11;;;;;;;15.68;2.55;;;9.30;99.90;;;;;;6285200;28;20052;-92
2023/11/20 08:10:13;;;;;;;18.52;3.17;;;9.30;99.90;;;;;;6237087;28;20049;-91
2023/11/20 08:13:15;;;;;;;12.68;2.28;;;9.30;99.90;;;;;;6259731;28;20479;-85
2023/11/20 08:16:17;;;;;;;17.48;2.72;;;9.30;99.90;;;;;;6277214;28;20132;-87
2023/11/20 08:19:19;;;;;;;15.80;2.85;;;9.30;99.90;;;;;;6237820;28;20061;-88
2023/11/20 08:22:21;;;;;;;14.45;2.65;;;9.30;99.90;;;;;;6258116;28;20053;-90
2023/11/20 08:25:22;;;;;;;15.15;2.08;;;9.30;99.90;;;;;;6253218;28;20049;-90
2023/11/20 08:28:24;;;;;;;15.85;2.53;;;9.20;99.90;;;;;;6256161;28;20060;-91
2023/11/20 08:31:26;;;;;;;14.15;2.50;;;9.20;99.90;;;;;;6235128;28;20053;-89
2023/11/20 08:34:28;;;;;;;14.07;2.10;;;9.30;99.90;;;;;;6259287;28;20044;-91
2023/11/20 08:37:30;;;;;;;13.98;2.08;;;9.30;99.90;;;;;;6255709;28;20146;-90
2023/11/20 08:40:32;;;;;;;12.40;2.38;;;9.40;99.90;;;;;;6258536;28;20045;-88
2023/11/20 08:43:34;;;;;;;10.93;1.83;;;9.40;99.90;;;;;;6256656;28;20063;-91
2023/11/20 08:46:36;;;;;;;9.40;2.05;;;9.40;99.90;;;;;;6279852;28;20060;-86
2023/11/20 08:49:37;;;;;;;12.90;1.85;;;9.40;99.90;;;;;;6248059;28;20063;-89
2023/11/20 08:52:39;;;;;;;9.32;1.60;;;9.40;99.90;;;;;;6242299;28;20413;-91
2023/11/20 08:55:41;;;;;;;11.13;1.98;;;9.50;99.90;;;;;;6241933;28;20075;-92
2023/11/20 08:58:43;;;;;;;15.45;2.30;;;9.50;99.90;;;;;;6257149;28;20511;-91
2023/11/20 09:01:47;;;;;;;11.48;1.60;;;9.50;99.90;;;;;;6257090;28;20053;-90
2023/11/20 09:04:49;;;;;;;8.52;1.40;;;9.70;99.90;;;;;;6277720;28;20426;-91
2023/11/20 09:07:51;;;;;;;7.38;1.55;;;9.60;99.90;;;;;;6235192;28;20609;-88
2023/11/20 09:10:53;;;;;;;5.47;1.63;;;9.80;99.90;;;;;;6276048;28;20056;-90
2023/11/20 09:13:55;;;;;;;9.55;1.92;;;9.80;99.90;;;;;;6264655;28;20045;-89
2023/11/20 09:16:57;;;;;;;7.35;1.58;;;9.80;99.90;;;;;;6250494;28;20069;-89
2023/11/20 09:20:00;;;;;;;13.00;1.67;;;9.90;99.90;;;;;;6250688;28;20054;-89
2023/11/20 09:23:02;;;;;;;9.15;1.50;;;9.90;99.90;;;;;;6276241;28;20049;-87
2023/11/20 09:26:04;;;;;;;9.70;1.45;;;10.00;99.90;;;;;;6234125;28;20048;-88
2023/11/20 09:29:06;;;;;;;7.18;1.20;;;10.10;99.90;;;;;;6240513;28;20052;-87
2023/11/20 09:32:10;;;;;;;5.55;1.40;;;10.10;99.90;;;;;;6271390;28;20056;-87
2023/11/20 09:35:12;;;;;;;7.93;1.25;;;10.10;99.90;;;;;;6256761;28;20060;-85
2023/11/20 09:38:14;;;;;;;7.25;1.05;;;10.10;99.90;;;;;;6261907;28;20049;-90
2023/11/20 09:41:16;;;;;;;5.28;1.00;;;10.10;99.90;;;;;;6258347;28;20076;-93
2023/11/20 09:44:18;;;;;;;10.20;1.35;;;10.20;99.90;;;;;;6276374;28;20055;-94
2023/11/20 09:47:22;;;;;;;7.07;1.25;;;10.30;99.90;;;;;;6274953;28;20053;-93
2023/11/20 09:50:24;;;;;;;3.55;1.13;;;10.40;99.90;;;;;;6257262;28;20080;-90
2023/11/20 09:53:26;;;;;;;15.52;1.40;;;10.50;99.90;;;;;;6261217;28;20057;-89
2023/11/20 09:56:28;;;;;;;9.65;1.83;;;10.60;99.90;;;;;;6258266;28;20052;-91
2023/11/20 09:59:29;;;;;;;8.68;1.27;;;10.60;99.90;;;;;;6245602;28;20060;-91
2023/11/20 10:02:33;;;;;;;7.05;1.38;;;10.60;99.90;;;;;;6264374;28;20079;-91
2023/11/20 10:05:34;;;;;;;7.10;1.40;;;10.70;99.90;;;;;;6252976;28;20057;-92
2023/11/20 10:08:36;;;;;;;8.50;1.73;;;10.80;99.90;;;;;;6280953;28;20059;-84
2023/11/20 10:11:38;;;;;;;7.70;1.48;;;10.80;99.90;;;;;;6255350;28;20615;-92
2023/11/20 10:14:40;;;;;;;6.50;1.85;;;10.80;99.90;;;;;;6243798;28;20045;-93
2023/11/20 10:17:42;;;;;;;9.90;1.60;;;10.90;99.90;;;;;;6276326;28;20080;-91
2023/11/20 10:20:44;;;;;;;9.38;1.60;;;11.00;99.90;;;;;;6253018;28;20132;-88
2023/11/20 10:23:46;;;;;;;6.72;1.90;;;11.00;99.90;;;;;;6233284;28;20079;-89
2023/11/20 10:26:48;;;;;;;8.15;1.75;;;11.10;99.90;;;;;;6263749;28;20049;-92
2023/11/20 10:29:50;;;;;;;9.05;1.45;;;11.00;99.90;;;;;;6265472;28;20053;-90
2023/11/20 10:32:52;;;;;;;5.85;1.63;;;11.00;99.90;;;;;;6261583;28;20492;-89
2023/11/20 10:35:53;;;;;;;8.80;2.35;;;11.00;99.90;;;;;;6274158;28;20393;-90
2023/11/20 10:38:55;;;;;;;8.15;1.70;;;11.00;99.90;;;;;;6259278;28;20053;-91
2023/11/20 10:42:00;;;;;;;7.50;1.95;;;11.00;99.90;;;;;;6261617;28;20730;-89
2023/11/20 10:45:02;;;;;;;13.32;2.25;;;11.10;99.90;;;;;;6234253;28;20100;-92
2023/11/20 10:48:09;;;;;;;9.70;1.90;;;11.10;99.90;;;;;;6258073;28;20879;-89
2023/11/20 10:51:12;;;;;;;8.40;1.90;;;11.20;99.90;;;;;;6249769;28;20064;-93
2023/11/20 10:54:14;;;;;;;9.77;1.98;;;11.40;99.90;;;;;;6258476;28;20146;-91
2023/11/20 10:57:16;;;;;;;7.88;1.90;;;11.60;99.90;;;;;;6274485;28;20049;-90
2023/11/20 11:00:18;;;;;;;13.30;2.20;;;12.00;99.90;;;;;;6236736;28;20065;-93
2023/11/20 11:03:20;;;;;;;11.52;1.90;;;12.40;99.90;;;;;;6284912;28;20435;-89
2023/11/20 11:06:22;;;;;;;9.35;1.80;;;12.40;99.90;;;;;;6258818;28;20508;-92
2023/11/20 11:09:24;;;;;;;8.82;1.65;;;12.40;99.90;;;;;;6282291;28;20064;-93
2023/11/20 11:12:26;;;;;;;10.27;1.80;;;12.30;99.90;;;;;;6266386;28;20033;-93
2023/11/20 11:15:31;;;;;;;13.15;1.60;;;12.00;99.90;;;;;;6268113;28;20057;-94
2023/11/20 11:18:35;;;;;;;5.97;1.70;;;11.90;99.90;;;;;;6250002;28;20072;-93
2023/11/20 11:21:38;;;;;;;9.60;1.88;;;11.80;99.90;;;;;;6251890;28;20057;-92
2023/11/20 11:24:40;;;;;;;7.75;2.08;;;11.90;99.90;;;;;;6277324;28;20041;-93
2023/11/20 11:27:42;;;;;;;8.98;1.70;;;11.90;99.90;;;;;;6254833;28;20056;-95
2023/11/20 11:30:44;;;;;;;6.93;1.50;;;12.20;99.90;;;;;;6276400;28;20045;-94
2023/11/20 11:33:47;;;;;;;7.88;2.58;;;13.70;99.90;;;;;;6558734;22;20076;-93
2023/11/20 11:36:49;;;;;;;7.57;1.58;;;14.60;99.20;;;;;;6277646;28;20045;-91
2023/11/20 11:39:50;;;;;;;5.78;1.30;;;14.60;93.00;;;;;;6254192;28;20049;-95
2023/11/20 11:42:53;;;;;;;6.57;1.38;;;15.10;92.80;;;;;;6282032;28;20060;-90
2023/11/20 11:45:55;;;;;;;8.30;1.55;;;14.70;94.00;;;;;;6244632;28;20053;-93
2023/11/20 11:48:57;;;;;;;6.25;1.50;;;14.50;95.40;;;;;;6278606;28;20091;-92
2023/11/20 11:51:59;;;;;;;6.75;1.60;;;14.00;94.30;;;;;;6278328;28;20060;-93
2023/11/20 11:55:01;;;;;;;6.50;1.58;;;13.60;95.30;;;;;;6270311;28;20400;-94
2023/11/20 11:58:03;;;;;;;8.60;2.08;;;13.20;97.40;;;;;;6290927;28;20049;-91
2023/11/20 12:01:05;;;;;;;11.73;1.80;;;13.10;99.20;;;;;;6272377;28;20086;-93
2023/11/20 12:04:07;;;;;;;7.55;1.88;;;13.10;99.50;;;;;;6257869;28;20057;-93
2023/11/20 12:07:10;;;;;;;8.70;1.88;;;13.10;98.80;;;;;;6277429;28;20156;-89
2023/11/20 12:10:12;;;;;;;6.30;1.50;;;13.00;98.30;;;;;;6254162;28;20049;-91
2023/11/20 12:13:15;;;;;;;9.55;1.85;;;13.20;97.80;;;;;;6274829;28;20485;-90
2023/11/20 12:16:19;;;;;;;10.50;1.73;;;13.00;98.60;;;;;;6251183;28;20116;-90
2023/11/20 12:19:21;;;;;;;12.48;1.63;;;12.80;99.60;;;;;;6240664;28;20060;-89
2023/11/20 12:22:25;;;;;;;11.32;1.60;;;12.70;96.80;;;;;;6261833;28;20108;-92
2023/11/20 12:25:27;;;;;;;8.18;1.60;;;12.50;99.30;;;;;;6237484;28;20058;-90
2023/11/20 12:28:31;;;;;;;10.05;1.70;;;12.50;99.90;;;;;;6256717;28;20136;-93
2023/11/20 12:31:34;;;;;;;9.25;1.70;;;12.40;98.30;;;;;;6235714;28;20063;-90
2023/11/20 12:34:35;;;;;;;10.52;1.83;;;12.40;99.90;;;;;;6236217;28;20063;-89
2023/11/20 12:37:37;;;;;;;9.32;2.67;;;12.50;99.90;;;;;;6258638;28;20423;-91
2023/11/20 12:40:39;;;;;;;8.70;2.17;;;12.50;99.30;;;;;;6237419;28;20500;-90
2023/11/20 12:43:42;;;;;;;8.93;2.00;;;12.40;99.90;;;;;;6259194;28;20053;-91
2023/11/20 12:46:45;;;;;;;11.25;2.20;;;12.30;99.40;;;;;;6262360;28;20362;-89
2023/11/20 12:49:47;;;;;;;9.10;1.98;;;12.20;98.70;;;;;;6242916;28;20045;-88
2023/11/20 12:52:48;;;;;;;10.73;2.42;;;12.10;99.30;;;;;;6276020;28;20049;-90
2023/11/20 12:55:53;;;;;;;10.68;2.15;;;12.10;99.40;;;;;;6291524;28;20057;-90
2023/11/20 12:58:54;;;;;;;7.72;1.92;;;12.10;99.90;;;;;;6255630;28;20059;-90
2023/11/20 13:01:57;;;;;;;7.45;1.77;;;12.00;99.70;;;;;;6276970;28;20056;-87
2023/11/20 13:05:01;;;;;;;7.80;1.65;;;12.00;99.70;;;;;;6251076;28;20058;-91
2023/11/20 13:08:03;;;;;;;8.25;1.50;;;11.90;97.70;;;;;;6267740;28;20057;-90
2023/11/20 13:11:07;;;;;;;8.25;1.65;;;12.00;97.50;;;;;;6291090;28;20049;-89
2023/11/20 13:14:09;;;;;;;9.38;1.85;;;12.10;97.50;;;;;;6276583;28;20033;-89
2023/11/20 13:17:11;;;;;;;11.60;1.90;;;12.30;96.50;;;;;;6261507;28;20041;-90
2023/11/20 13:20:14;;;;;;;6.68;1.50;;;12.50;96.60;;;;;;6273987;28;20071;-89
2023/11/20 13:23:19;;;;;;;7.18;1.95;;;12.60;96.60;;;;;;6244767;28;20057;-91
2023/11/20 13:26:21;;;;;;;5.75;1.40;;;12.50;95.60;;;;;;6243696;28;20061;-91
2023/11/20 13:29:30;;;;;;;6.50;1.40;;;12.50;95.20;;;;;;6262275;28;20559;-90
2023/11/20 13:32:32;;;;;;;7.35;1.73;;;12.50;94.60;;;;;;6274008;28;20057;-90
2023/11/20 13:35:33;;;;;;;7.30;1.40;;;12.60;95.70;;;;;;6268771;28;20067;-90
2023/11/20 13:38:35;;;;;;;7.95;1.40;;;12.70;95.00;;;;;;6240253;28;20509;-90
2023/11/20 13:41:37;;;;;;;8.25;1.35;;;12.90;95.20;;;;;;6272515;28;20124;-90
2023/11/20 13:44:40;;;;;;;5.03;0.95;;;13.00;94.20;;;;;;6250576;28;20049;-90
2023/11/20 13:47:42;;;;;;;5.72;1.25;;;12.90;95.30;;;;;;6283961;28;20049;-91
2023/11/20 13:50:43;;;;;;;7.05;1.40;;;12.90;90.80;;;;;;6264270;28;20052;-90
2023/11/20 13:53:46;;;;;;;5.38;1.65;;;12.90;93.10;;;;;;6257745;28;20045;-89
2023/11/20 13:56:48;;;;;;;5.90;1.20;;;13.00;92.40;;;;;;6266066;28;20076;-91
2023/11/20 13:59:50;;;;;;;5.32;1.60;;;12.80;92.30;;;;;;6271267;28;20056;-91
2023/11/20 14:02:51;;;;;;;9.27;1.52;;;12.70;92.90;;;;;;6237508;28;20049;-90
2023/11/20 14:05:54;;;;;;;6.18;1.23;;;12.60;91.30;;;;;;6281216;28;20104;-91
2023/11/20 14:08:56;;;;;;;9.18;1.77;;;12.50;91.70;;;;;;6238493;28;20057;-91
2023/11/20 14:11:58;;;;;;;5.72;1.60;;;12.40;91.30;;;;;;6262305;28;20056;-90
2023/11/20 14:15:01;;;;;;;10.60;1.63;;;12.40;91.00;;;;;;6278359;28;20069;-90
2023/11/20 14:18:04;;;;;;;8.02;1.33;;;12.40;88.60;;;;;;6245679;28;20053;-89
2023/11/20 14:21:05;;;;;;;6.93;1.50;;;12.40;91.70;;;;;;6260630;28;20071;-90
2023/11/20 14:24:08;;;;;;;6.35;1.40;;;12.50;91.40;;;;;;6236551;28;20049;-89
2023/11/20 14:27:09;;;;;;;7.45;1.60;;;12.60;90.50;;;;;;6259394;28;20053;-91
2023/11/20 14:30:11;;;;;;;4.88;1.27;;;12.60;90.30;;;;;;6233836;28;20489;-88
2023/11/20 14:33:14;;;;;;;6.72;1.70;;;12.60;86.70;;;;;;6257379;28;20057;-86
2023/11/20 14:36:16;;;;;;;6.45;1.40;;;12.60;90.10;;;;;;6251341;28;20046;-86
2023/11/20 14:39:17;;;;;;;8.45;1.70;;;12.60;87.00;;;;;;6256124;28;20049;-88
2023/11/20 14:42:19;;;;;;;9.13;1.85;;;12.50;84.90;;;;;;6250812;28;20126;-88
2023/11/20 14:45:21;;;;;;;8.43;1.67;;;12.40;83.80;;;;;;6227047;28;20061;-89
2023/11/20 14:48:24;;;;;;;9.43;1.90;;;12.20;73.50;;;;;;6253652;28;20049;-88
2023/11/20 14:51:26;;;;;;;5.75;1.70;;;12.10;82.40;;;;;;6233430;28;20061;-89
2023/11/20 14:54:29;;;;;;;6.95;1.70;;;11.90;88.10;;;;;;6275717;28;20044;-90
2023/11/20 14:57:34;;;;;;;7.35;1.80;;;11.90;88.10;;;;;;6256071;28;20053;-91
2023/11/20 15:00:38;;;;;;;10.32;2.33;;;11.90;88.80;;;;;;6231408;28;20058;-91
2023/11/20 15:03:40;;;;;;;9.30;1.90;;;11.80;85.80;;;;;;6257608;28;20144;-92
2023/11/20 15:06:43;;;;;;;6.03;1.60;;;11.70;90.10;;;;;;6268144;28;20049;-92
2023/11/20 15:09:45;;;;;;;7.70;1.95;;;11.70;88.60;;;;;;6238147;28;20065;-92
2023/11/20 15:12:48;;;;;;;6.40;1.45;;;11.80;90.70;;;;;;6260140;28;20067;-88
2023/11/20 15:15:50;;;;;;;9.75;2.13;;;11.80;88.00;;;;;;6241368;28;20050;-92
2023/11/20 15:19:02;;;;;;;7.32;1.90;;;11.80;90.50;;;;;;6264168;28;20057;-93
2023/11/20 15:22:06;;;;;;;6.25;1.73;;;11.80;90.50;;;;;;6267768;28;20056;-91
2023/11/20 15:25:08;;;;;;;8.35;1.85;;;11.70;90.20;;;;;;6255724;28;20055;-93
2023/11/20 15:28:11;;;;;;;8.57;2.28;;;11.70;91.30;;;;;;6284591;28;20045;-93
2023/11/20 15:31:15;;;;;;;7.13;1.70;;;11.70;92.60;;;;;;6241573;28;20053;-89
2023/11/20 15:34:17;;;;;;;7.75;1.90;;;11.60;92.30;;;;;;6253752;28;20128;-90
2023/11/20 15:37:19;;;;;;;7.35;2.05;;;11.60;92.70;;;;;;6279460;28;20080;-90
2023/11/20 15:40:21;;;;;;;7.57;1.70;;;11.60;92.20;;;;;;6237563;28;20053;-90
2023/11/20 15:43:23;;;;;;;7.85;1.55;;;11.60;93.70;;;;;;6257305;28;20046;-88
2023/11/20 15:46:25;;;;;;;9.07;2.00;;;11.50;93.00;;;;;;6249849;28;20098;-91